sensor_id;sensor_type;location;lat;lon;timestamp;P1;durP1;ratioP1;P2;durP2;ratioP2
5167;SDS011;2603;48.918;8.980;2023-06-22T00:01:10;12.23;;;6.80;;
5167;SDS011;2603;48.918;8.980;2023-06-22T00:03:36;18.70;;;6.27;;
5167;SDS011;2603;48.918;8.980;2023-06-22T00:06:03;12.13;;;6.50;;
5167;SDS011;2603;48.918;8.980;2023-06-22T00:08:29;13.27;;;6.53;;
5167;SDS011;2603;48.918;8.980;2023-06-22T00:10:56;10.17;;;6.80;;
5167;SDS011;2603;48.918;8.980;2023-06-22T00:13:23;10.43;;;5.80;;
5167;SDS011;2603;48.918;8.980;2023-06-22T00:15:51;7.93;;;5.33;;
5167;SDS011;2603;48.918;8.980;2023-06-22T00:18:19;11.80;;;6.47;;
5167;SDS011;2603;48.918;8.980;2023-06-22T00:20:46;11.17;;;6.10;;
5167;SDS011;2603;48.918;8.980;2023-06-22T00:23:13;10.67;;;7.37;;
5167;SDS011;2603;48.918;8.980;2023-06-22T00:25:42;14.03;;;6.60;;
5167;SDS011;2603;48.918;8.980;2023-06-22T00:28:09;10.97;;;6.20;;
5167;SDS011;2603;48.918;8.980;2023-06-22T00:30:35;8.60;;;6.80;;
5167;SDS011;2603;48.918;8.980;2023-06-22T00:33:04;10.00;;;5.70;;
5167;SDS011;2603;48.918;8.980;2023-06-22T00:35:32;12.10;;;6.83;;
5167;SDS011;2603;48.918;8.980;2023-06-22T00:37:59;12.80;;;7.00;;
5167;SDS011;2603;48.918;8.980;2023-06-22T00:40:27;13.80;;;7.07;;
5167;SDS011;2603;48.918;8.980;2023-06-22T00:42:54;10.40;;;6.50;;
5167;SDS011;2603;48.918;8.980;2023-06-22T00:45:21;12.37;;;7.27;;
5167;SDS011;2603;48.918;8.980;2023-06-22T00:47:49;8.30;;;6.17;;
5167;SDS011;2603;48.918;8.980;2023-06-22T00:50:19;15.27;;;7.80;;
5167;SDS011;2603;48.918;8.980;2023-06-22T00:52:47;13.37;;;8.33;;
5167;SDS011;2603;48.918;8.980;2023-06-22T00:55:16;8.40;;;6.10;;
5167;SDS011;2603;48.918;8.980;2023-06-22T00:57:43;14.27;;;6.60;;
5167;SDS011;2603;48.918;8.980;2023-06-22T01:00:10;13.00;;;7.00;;
5167;SDS011;2603;48.918;8.980;2023-06-22T01:02:44;13.03;;;6.53;;
5167;SDS011;2603;48.918;8.980;2023-06-22T01:05:12;12.83;;;6.97;;
5167;SDS011;2603;48.918;8.980;2023-06-22T01:07:42;11.10;;;6.43;;
5167;SDS011;2603;48.918;8.980;2023-06-22T01:10:13;11.77;;;7.47;;
5167;SDS011;2603;48.918;8.980;2023-06-22T01:12:43;13.23;;;6.30;;
5167;SDS011;2603;48.918;8.980;2023-06-22T01:15:13;11.53;;;7.20;;
5167;SDS011;2603;48.918;8.980;2023-06-22T01:17:42;11.33;;;6.43;;
5167;SDS011;2603;48.918;8.980;2023-06-22T01:20:10;12.30;;;6.93;;
5167;SDS011;2603;48.918;8.980;2023-06-22T01:22:39;9.70;;;6.40;;
5167;SDS011;2603;48.918;8.980;2023-06-22T01:25:19;9.47;;;6.97;;
5167;SDS011;2603;48.918;8.980;2023-06-22T01:27:50;15.70;;;7.70;;
5167;SDS011;2603;48.918;8.980;2023-06-22T01:30:27;15.13;;;8.00;;
5167;SDS011;2603;48.918;8.980;2023-06-22T01:32:58;18.23;;;7.50;;
5167;SDS011;2603;48.918;8.980;2023-06-22T01:35:26;13.13;;;7.30;;
5167;SDS011;2603;48.918;8.980;2023-06-22T01:37:54;12.80;;;7.73;;
5167;SDS011;2603;48.918;8.980;2023-06-22T01:40:21;12.60;;;6.93;;
5167;SDS011;2603;48.918;8.980;2023-06-22T01:42:50;11.70;;;7.60;;
5167;SDS011;2603;48.918;8.980;2023-06-22T01:45:17;19.03;;;8.60;;
5167;SDS011;2603;48.918;8.980;2023-06-22T01:47:46;18.90;;;8.57;;
5167;SDS011;2603;48.918;8.980;2023-06-22T01:50:13;16.70;;;7.50;;
5167;SDS011;2603;48.918;8.980;2023-06-22T01:52:41;14.27;;;8.10;;
5167;SDS011;2603;48.918;8.980;2023-06-22T01:55:07;20.40;;;7.70;;
5167;SDS011;2603;48.918;8.980;2023-06-22T01:57:34;14.93;;;8.33;;
5167;SDS011;2603;48.918;8.980;2023-06-22T02:00:03;15.90;;;7.97;;
5167;SDS011;2603;48.918;8.980;2023-06-22T02:02:40;19.43;;;8.93;;
5167;SDS011;2603;48.918;8.980;2023-06-22T02:05:11;15.03;;;7.20;;
5167;SDS011;2603;48.918;8.980;2023-06-22T02:07:39;13.50;;;7.67;;
5167;SDS011;2603;48.918;8.980;2023-06-22T02:10:08;19.33;;;8.10;;
5167;SDS011;2603;48.918;8.980;2023-06-22T02:12:37;20.53;;;8.37;;
5167;SDS011;2603;48.918;8.980;2023-06-22T02:15:05;15.80;;;9.03;;
5167;SDS011;2603;48.918;8.980;2023-06-22T02:17:32;13.80;;;8.60;;
5167;SDS011;2603;48.918;8.980;2023-06-22T02:20:01;13.53;;;7.43;;
5167;SDS011;2603;48.918;8.980;2023-06-22T02:22:36;10.67;;;7.70;;
5167;SDS011;2603;48.918;8.980;2023-06-22T02:25:03;16.43;;;8.70;;
5167;SDS011;2603;48.918;8.980;2023-06-22T02:27:30;22.80;;;8.23;;
5167;SDS011;2603;48.918;8.980;2023-06-22T02:29:56;18.77;;;9.07;;
5167;SDS011;2603;48.918;8.980;2023-06-22T02:32:23;15.57;;;8.77;;
5167;SDS011;2603;48.918;8.980;2023-06-22T02:34:49;21.00;;;9.50;;
5167;SDS011;2603;48.918;8.980;2023-06-22T02:37:16;18.33;;;9.90;;
5167;SDS011;2603;48.918;8.980;2023-06-22T02:39:45;13.37;;;8.50;;
5167;SDS011;2603;48.918;8.980;2023-06-22T02:42:11;20.93;;;8.80;;
5167;SDS011;2603;48.918;8.980;2023-06-22T02:44:41;12.33;;;7.73;;
5167;SDS011;2603;48.918;8.980;2023-06-22T02:47:08;19.13;;;9.17;;
5167;SDS011;2603;48.918;8.980;2023-06-22T02:49:34;14.70;;;8.00;;
5167;SDS011;2603;48.918;8.980;2023-06-22T02:52:01;15.50;;;8.80;;
5167;SDS011;2603;48.918;8.980;2023-06-22T02:54:28;11.77;;;7.70;;
5167;SDS011;2603;48.918;8.980;2023-06-22T02:56:56;16.50;;;7.93;;
5167;SDS011;2603;48.918;8.980;2023-06-22T02:59:22;11.27;;;7.60;;
5167;SDS011;2603;48.918;8.980;2023-06-22T03:01:51;15.37;;;7.73;;
5167;SDS011;2603;48.918;8.980;2023-06-22T03:04:22;21.13;;;8.40;;
5167;SDS011;2603;48.918;8.980;2023-06-22T03:06:49;13.53;;;7.67;;
5167;SDS011;2603;48.918;8.980;2023-06-22T03:09:17;13.33;;;7.83;;
5167;SDS011;2603;48.918;8.980;2023-06-22T03:11:43;19.73;;;8.40;;
5167;SDS011;2603;48.918;8.980;2023-06-22T03:14:11;11.03;;;6.80;;
5167;SDS011;2603;48.918;8.980;2023-06-22T03:16:38;12.37;;;7.87;;
5167;SDS011;2603;48.918;8.980;2023-06-22T03:19:05;11.40;;;7.07;;
5167;SDS011;2603;48.918;8.980;2023-06-22T03:21:32;12.30;;;7.23;;
5167;SDS011;2603;48.918;8.980;2023-06-22T03:23:59;19.30;;;8.30;;
5167;SDS011;2603;48.918;8.980;2023-06-22T03:26:26;13.80;;;8.00;;
5167;SDS011;2603;48.918;8.980;2023-06-22T03:28:52;18.20;;;8.80;;
5167;SDS011;2603;48.918;8.980;2023-06-22T03:31:20;17.70;;;9.00;;
5167;SDS011;2603;48.918;8.980;2023-06-22T03:33:48;12.73;;;7.63;;
5167;SDS011;2603;48.918;8.980;2023-06-22T03:36:15;19.07;;;8.30;;
5167;SDS011;2603;48.918;8.980;2023-06-22T03:38:44;10.47;;;7.77;;
5167;SDS011;2603;48.918;8.980;2023-06-22T03:41:11;12.87;;;7.97;;
5167;SDS011;2603;48.918;8.980;2023-06-22T03:43:39;15.60;;;7.53;;
5167;SDS011;2603;48.918;8.980;2023-06-22T03:46:05;15.43;;;7.50;;
5167;SDS011;2603;48.918;8.980;2023-06-22T03:48:33;17.40;;;8.20;;
5167;SDS011;2603;48.918;8.980;2023-06-22T03:51:00;16.03;;;8.33;;
5167;SDS011;2603;48.918;8.980;2023-06-22T03:53:28;15.73;;;8.00;;
5167;SDS011;2603;48.918;8.980;2023-06-22T03:55:55;15.23;;;8.30;;
5167;SDS011;2603;48.918;8.980;2023-06-22T03:58:21;18.63;;;7.73;;
5167;SDS011;2603;48.918;8.980;2023-06-22T04:00:48;18.07;;;8.97;;
5167;SDS011;2603;48.918;8.980;2023-06-22T04:03:16;15.83;;;7.27;;
5167;SDS011;2603;48.918;8.980;2023-06-22T04:05:45;15.33;;;8.50;;
5167;SDS011;2603;48.918;8.980;2023-06-22T04:08:11;15.60;;;7.77;;
5167;SDS011;2603;48.918;8.980;2023-06-22T04:10:38;14.63;;;8.43;;
5167;SDS011;2603;48.918;8.980;2023-06-22T04:13:05;16.80;;;8.50;;
5167;SDS011;2603;48.918;8.980;2023-06-22T04:15:31;12.50;;;7.40;;
5167;SDS011;2603;48.918;8.980;2023-06-22T04:17:58;14.03;;;7.60;;
5167;SDS011;2603;48.918;8.980;2023-06-22T04:20:24;14.33;;;7.20;;
5167;SDS011;2603;48.918;8.980;2023-06-22T04:22:53;26.03;;;6.67;;
5167;SDS011;2603;48.918;8.980;2023-06-22T04:25:20;13.57;;;7.67;;
5167;SDS011;2603;48.918;8.980;2023-06-22T04:27:46;16.50;;;7.70;;
5167;SDS011;2603;48.918;8.980;2023-06-22T04:30:13;18.90;;;7.43;;
5167;SDS011;2603;48.918;8.980;2023-06-22T04:32:41;16.87;;;7.57;;
5167;SDS011;2603;48.918;8.980;2023-06-22T04:35:08;15.40;;;7.63;;
5167;SDS011;2603;48.918;8.980;2023-06-22T04:37:35;16.70;;;8.30;;
5167;SDS011;2603;48.918;8.980;2023-06-22T04:40:03;13.00;;;8.67;;
5167;SDS011;2603;48.918;8.980;2023-06-22T04:42:30;11.43;;;7.10;;
5167;SDS011;2603;48.918;8.980;2023-06-22T04:44:57;12.00;;;7.37;;
5167;SDS011;2603;48.918;8.980;2023-06-22T04:47:24;22.90;;;7.70;;
5167;SDS011;2603;48.918;8.980;2023-06-22T04:49:50;10.10;;;7.60;;
5167;SDS011;2603;48.918;8.980;2023-06-22T04:52:17;14.00;;;7.83;;
5167;SDS011;2603;48.918;8.980;2023-06-22T04:54:45;9.77;;;7.00;;
5167;SDS011;2603;48.918;8.980;2023-06-22T04:57:15;12.03;;;7.50;;
5167;SDS011;2603;48.918;8.980;2023-06-22T04:59:41;17.60;;;8.50;;
5167;SDS011;2603;48.918;8.980;2023-06-22T05:02:08;18.77;;;7.77;;
5167;SDS011;2603;48.918;8.980;2023-06-22T05:04:35;14.60;;;8.03;;
5167;SDS011;2603;48.918;8.980;2023-06-22T05:07:04;16.73;;;8.30;;
5167;SDS011;2603;48.918;8.980;2023-06-22T05:09:30;13.40;;;7.97;;
5167;SDS011;2603;48.918;8.980;2023-06-22T05:11:58;13.00;;;7.30;;
5167;SDS011;2603;48.918;8.980;2023-06-22T05:14:29;9.70;;;7.23;;
5167;SDS011;2603;48.918;8.980;2023-06-22T05:16:55;8.63;;;6.33;;
5167;SDS011;2603;48.918;8.980;2023-06-22T05:19:24;12.23;;;7.10;;
5167;SDS011;2603;48.918;8.980;2023-06-22T05:21:50;10.63;;;7.33;;
5167;SDS011;2603;48.918;8.980;2023-06-22T05:24:18;11.40;;;7.07;;
5167;SDS011;2603;48.918;8.980;2023-06-22T05:26:44;12.70;;;6.73;;
5167;SDS011;2603;48.918;8.980;2023-06-22T05:29:11;12.60;;;7.27;;
5167;SDS011;2603;48.918;8.980;2023-06-22T05:31:39;10.90;;;7.13;;
5167;SDS011;2603;48.918;8.980;2023-06-22T05:34:06;15.33;;;8.47;;
5167;SDS011;2603;48.918;8.980;2023-06-22T05:36:33;11.43;;;7.67;;
5167;SDS011;2603;48.918;8.980;2023-06-22T05:39:00;14.33;;;7.57;;
5167;SDS011;2603;48.918;8.980;2023-06-22T05:41:37;12.77;;;7.93;;
5167;SDS011;2603;48.918;8.980;2023-06-22T05:44:04;11.67;;;7.87;;
5167;SDS011;2603;48.918;8.980;2023-06-22T05:46:30;12.63;;;7.43;;
5167;SDS011;2603;48.918;8.980;2023-06-22T05:48:58;10.67;;;7.47;;
5167;SDS011;2603;48.918;8.980;2023-06-22T05:51:25;14.07;;;6.43;;
5167;SDS011;2603;48.918;8.980;2023-06-22T05:53:51;11.53;;;6.90;;
5167;SDS011;2603;48.918;8.980;2023-06-22T05:56:18;9.90;;;7.53;;
5167;SDS011;2603;48.918;8.980;2023-06-22T05:58:45;12.30;;;8.20;;
5167;SDS011;2603;48.918;8.980;2023-06-22T06:01:12;11.47;;;7.60;;
5167;SDS011;2603;48.918;8.980;2023-06-22T06:03:40;10.30;;;7.40;;
5167;SDS011;2603;48.918;8.980;2023-06-22T06:06:08;13.53;;;6.93;;
5167;SDS011;2603;48.918;8.980;2023-06-22T06:08:36;14.23;;;7.53;;
5167;SDS011;2603;48.918;8.980;2023-06-22T06:11:02;15.87;;;8.17;;
5167;SDS011;2603;48.918;8.980;2023-06-22T06:13:29;10.00;;;6.43;;
5167;SDS011;2603;48.918;8.980;2023-06-22T06:15:55;11.70;;;7.83;;
5167;SDS011;2603;48.918;8.980;2023-06-22T06:18:22;14.97;;;7.57;;
5167;SDS011;2603;48.918;8.980;2023-06-22T06:20:49;12.07;;;6.53;;
5167;SDS011;2603;48.918;8.980;2023-06-22T06:23:17;13.40;;;6.97;;
5167;SDS011;2603;48.918;8.980;2023-06-22T06:25:43;12.83;;;6.53;;
5167;SDS011;2603;48.918;8.980;2023-06-22T06:28:10;21.00;;;7.80;;
5167;SDS011;2603;48.918;8.980;2023-06-22T06:30:36;13.30;;;7.37;;
5167;SDS011;2603;48.918;8.980;2023-06-22T06:33:03;11.30;;;7.30;;
5167;SDS011;2603;48.918;8.980;2023-06-22T06:35:33;13.67;;;7.20;;
5167;SDS011;2603;48.918;8.980;2023-06-22T06:38:00;9.00;;;6.40;;
5167;SDS011;2603;48.918;8.980;2023-06-22T06:40:28;10.53;;;7.30;;
5167;SDS011;2603;48.918;8.980;2023-06-22T06:42:55;15.73;;;7.53;;
5167;SDS011;2603;48.918;8.980;2023-06-22T06:45:22;14.03;;;6.70;;
5167;SDS011;2603;48.918;8.980;2023-06-22T06:47:50;14.40;;;6.97;;
5167;SDS011;2603;48.918;8.980;2023-06-22T06:50:18;10.20;;;7.37;;
5167;SDS011;2603;48.918;8.980;2023-06-22T06:52:46;9.60;;;6.70;;
5167;SDS011;2603;48.918;8.980;2023-06-22T06:55:15;9.33;;;6.37;;
5167;SDS011;2603;48.918;8.980;2023-06-22T06:57:43;11.70;;;6.27;;
5167;SDS011;2603;48.918;8.980;2023-06-22T07:00:14;8.97;;;6.00;;
5167;SDS011;2603;48.918;8.980;2023-06-22T07:02:41;7.70;;;5.77;;
5167;SDS011;2603;48.918;8.980;2023-06-22T07:05:09;9.47;;;7.00;;
5167;SDS011;2603;48.918;8.980;2023-06-22T07:07:36;9.77;;;6.50;;
5167;SDS011;2603;48.918;8.980;2023-06-22T07:10:04;7.33;;;5.13;;
5167;SDS011;2603;48.918;8.980;2023-06-22T07:12:31;10.90;;;6.63;;
5167;SDS011;2603;48.918;8.980;2023-06-22T07:15:02;14.13;;;7.20;;
5167;SDS011;2603;48.918;8.980;2023-06-22T07:17:30;10.90;;;5.83;;
5167;SDS011;2603;48.918;8.980;2023-06-22T07:19:56;13.00;;;5.90;;
5167;SDS011;2603;48.918;8.980;2023-06-22T07:22:23;8.63;;;5.70;;
5167;SDS011;2603;48.918;8.980;2023-06-22T07:24:49;8.53;;;5.67;;
5167;SDS011;2603;48.918;8.980;2023-06-22T07:27:16;10.07;;;6.20;;
5167;SDS011;2603;48.918;8.980;2023-06-22T07:29:44;16.90;;;6.50;;
5167;SDS011;2603;48.918;8.980;2023-06-22T07:32:12;12.43;;;5.67;;
5167;SDS011;2603;48.918;8.980;2023-06-22T07:34:38;7.47;;;4.60;;
5167;SDS011;2603;48.918;8.980;2023-06-22T07:37:06;11.77;;;6.00;;
5167;SDS011;2603;48.918;8.980;2023-06-22T07:39:32;10.43;;;5.80;;
5167;SDS011;2603;48.918;8.980;2023-06-22T07:41:59;12.10;;;5.73;;
5167;SDS011;2603;48.918;8.980;2023-06-22T07:44:26;15.00;;;5.20;;
5167;SDS011;2603;48.918;8.980;2023-06-22T07:46:52;10.40;;;5.57;;
5167;SDS011;2603;48.918;8.980;2023-06-22T07:49:20;6.67;;;4.43;;
5167;SDS011;2603;48.918;8.980;2023-06-22T07:51:47;13.30;;;5.30;;
5167;SDS011;2603;48.918;8.980;2023-06-22T07:54:13;7.60;;;5.00;;
5167;SDS011;2603;48.918;8.980;2023-06-22T07:56:41;13.10;;;4.80;;
5167;SDS011;2603;48.918;8.980;2023-06-22T07:59:08;9.80;;;5.27;;
5167;SDS011;2603;48.918;8.980;2023-06-22T08:01:34;8.17;;;5.37;;
5167;SDS011;2603;48.918;8.980;2023-06-22T08:04:01;10.20;;;5.20;;
5167;SDS011;2603;48.918;8.980;2023-06-22T08:06:30;8.37;;;5.57;;
5167;SDS011;2603;48.918;8.980;2023-06-22T08:08:57;9.47;;;5.00;;
5167;SDS011;2603;48.918;8.980;2023-06-22T08:11:24;24.23;;;5.50;;
5167;SDS011;2603;48.918;8.980;2023-06-22T08:13:51;12.70;;;5.47;;
5167;SDS011;2603;48.918;8.980;2023-06-22T08:16:17;9.17;;;5.03;;
5167;SDS011;2603;48.918;8.980;2023-06-22T08:18:44;8.80;;;3.97;;
5167;SDS011;2603;48.918;8.980;2023-06-22T08:21:10;16.00;;;4.77;;
5167;SDS011;2603;48.918;8.980;2023-06-22T08:23:38;13.90;;;5.90;;
5167;SDS011;2603;48.918;8.980;2023-06-22T08:26:05;11.80;;;5.10;;
5167;SDS011;2603;48.918;8.980;2023-06-22T08:28:31;10.50;;;5.23;;
5167;SDS011;2603;48.918;8.980;2023-06-22T08:30:59;13.17;;;5.57;;
5167;SDS011;2603;48.918;8.980;2023-06-22T08:33:27;7.47;;;5.40;;
5167;SDS011;2603;48.918;8.980;2023-06-22T08:35:55;12.80;;;6.60;;
5167;SDS011;2603;48.918;8.980;2023-06-22T08:38:22;12.37;;;5.73;;
5167;SDS011;2603;48.918;8.980;2023-06-22T08:40:50;11.07;;;5.43;;
5167;SDS011;2603;48.918;8.980;2023-06-22T08:43:16;13.17;;;5.13;;
5167;SDS011;2603;48.918;8.980;2023-06-22T08:45:43;8.30;;;4.77;;
5167;SDS011;2603;48.918;8.980;2023-06-22T08:48:10;12.93;;;6.00;;
5167;SDS011;2603;48.918;8.980;2023-06-22T08:50:37;14.80;;;6.50;;
5167;SDS011;2603;48.918;8.980;2023-06-22T08:53:05;8.83;;;5.40;;
5167;SDS011;2603;48.918;8.980;2023-06-22T08:55:32;11.23;;;5.80;;
5167;SDS011;2603;48.918;8.980;2023-06-22T08:58:00;32.37;;;5.83;;
5167;SDS011;2603;48.918;8.980;2023-06-22T09:00:28;16.43;;;5.03;;
5167;SDS011;2603;48.918;8.980;2023-06-22T09:02:57;9.13;;;5.40;;
5167;SDS011;2603;48.918;8.980;2023-06-22T09:05:24;12.13;;;6.23;;
5167;SDS011;2603;48.918;8.980;2023-06-22T09:07:51;11.00;;;5.90;;
5167;SDS011;2603;48.918;8.980;2023-06-22T09:10:19;13.40;;;4.80;;
5167;SDS011;2603;48.918;8.980;2023-06-22T09:12:46;16.60;;;5.40;;
5167;SDS011;2603;48.918;8.980;2023-06-22T09:15:14;14.97;;;5.53;;
5167;SDS011;2603;48.918;8.980;2023-06-22T09:17:40;11.33;;;6.30;;
5167;SDS011;2603;48.918;8.980;2023-06-22T09:20:07;13.27;;;5.57;;
5167;SDS011;2603;48.918;8.980;2023-06-22T09:22:36;7.53;;;4.60;;
5167;SDS011;2603;48.918;8.980;2023-06-22T09:25:02;11.93;;;5.57;;
5167;SDS011;2603;48.918;8.980;2023-06-22T09:27:30;10.13;;;4.97;;
5167;SDS011;2603;48.918;8.980;2023-06-22T09:29:56;11.73;;;5.83;;
5167;SDS011;2603;48.918;8.980;2023-06-22T09:32:24;16.07;;;5.47;;
5167;SDS011;2603;48.918;8.980;2023-06-22T09:34:51;8.53;;;5.07;;
5167;SDS011;2603;48.918;8.980;2023-06-22T09:37:18;12.47;;;5.70;;
5167;SDS011;2603;48.918;8.980;2023-06-22T09:39:44;12.83;;;5.20;;
5167;SDS011;2603;48.918;8.980;2023-06-22T09:42:11;10.10;;;5.30;;
5167;SDS011;2603;48.918;8.980;2023-06-22T09:44:38;11.03;;;5.37;;
5167;SDS011;2603;48.918;8.980;2023-06-22T09:47:05;8.73;;;5.20;;
5167;SDS011;2603;48.918;8.980;2023-06-22T09:49:33;8.17;;;5.20;;
5167;SDS011;2603;48.918;8.980;2023-06-22T09:52:00;7.80;;;4.93;;
5167;SDS011;2603;48.918;8.980;2023-06-22T09:54:26;10.10;;;5.17;;
5167;SDS011;2603;48.918;8.980;2023-06-22T09:56:53;12.00;;;5.30;;
5167;SDS011;2603;48.918;8.980;2023-06-22T09:59:19;8.20;;;5.40;;
5167;SDS011;2603;48.918;8.980;2023-06-22T10:01:46;12.33;;;5.23;;
5167;SDS011;2603;48.918;8.980;2023-06-22T10:04:12;10.60;;;5.30;;
5167;SDS011;2603;48.918;8.980;2023-06-22T10:06:40;14.37;;;4.30;;
5167;SDS011;2603;48.918;8.980;2023-06-22T10:09:07;10.97;;;5.70;;
5167;SDS011;2603;48.918;8.980;2023-06-22T10:11:33;8.87;;;4.70;;
5167;SDS011;2603;48.918;8.980;2023-06-22T10:14:00;15.63;;;5.80;;
5167;SDS011;2603;48.918;8.980;2023-06-22T10:16:30;10.57;;;6.10;;
5167;SDS011;2603;48.918;8.980;2023-06-22T10:18:57;14.53;;;5.30;;
5167;SDS011;2603;48.918;8.980;2023-06-22T10:21:23;12.53;;;5.83;;
5167;SDS011;2603;48.918;8.980;2023-06-22T10:23:52;12.13;;;5.37;;
5167;SDS011;2603;48.918;8.980;2023-06-22T10:26:19;11.40;;;4.97;;
5167;SDS011;2603;48.918;8.980;2023-06-22T10:28:45;18.37;;;5.67;;
5167;SDS011;2603;48.918;8.980;2023-06-22T10:31:12;17.70;;;5.57;;
5167;SDS011;2603;48.918;8.980;2023-06-22T10:33:39;10.80;;;4.97;;
5167;SDS011;2603;48.918;8.980;2023-06-22T10:36:06;12.67;;;5.37;;
5167;SDS011;2603;48.918;8.980;2023-06-22T10:38:33;8.57;;;5.30;;
5167;SDS011;2603;48.918;8.980;2023-06-22T10:41:01;10.73;;;4.97;;
5167;SDS011;2603;48.918;8.980;2023-06-22T10:43:28;10.23;;;5.30;;
5167;SDS011;2603;48.918;8.980;2023-06-22T10:45:54;11.80;;;6.47;;
5167;SDS011;2603;48.918;8.980;2023-06-22T10:48:21;14.10;;;4.63;;
5167;SDS011;2603;48.918;8.980;2023-06-22T10:50:47;7.30;;;4.70;;
5167;SDS011;2603;48.918;8.980;2023-06-22T10:53:14;9.07;;;4.87;;
5167;SDS011;2603;48.918;8.980;2023-06-22T10:55:40;9.57;;;5.00;;
5167;SDS011;2603;48.918;8.980;2023-06-22T10:58:08;10.23;;;5.00;;
5167;SDS011;2603;48.918;8.980;2023-06-22T11:00:35;15.90;;;6.17;;
5167;SDS011;2603;48.918;8.980;2023-06-22T11:03:02;6.93;;;4.67;;
5167;SDS011;2603;48.918;8.980;2023-06-22T11:05:28;12.03;;;5.73;;
5167;SDS011;2603;48.918;8.980;2023-06-22T11:07:55;10.00;;;5.37;;
5167;SDS011;2603;48.918;8.980;2023-06-22T11:10:21;14.37;;;5.90;;
5167;SDS011;2603;48.918;8.980;2023-06-22T11:12:48;8.63;;;4.87;;
5167;SDS011;2603;48.918;8.980;2023-06-22T11:15:15;10.97;;;5.07;;
5167;SDS011;2603;48.918;8.980;2023-06-22T11:17:42;9.27;;;5.73;;
5167;SDS011;2603;48.918;8.980;2023-06-22T11:20:09;11.77;;;5.67;;
5167;SDS011;2603;48.918;8.980;2023-06-22T11:22:37;16.20;;;5.00;;
5167;SDS011;2603;48.918;8.980;2023-06-22T11:25:04;9.80;;;4.30;;
5167;SDS011;2603;48.918;8.980;2023-06-22T11:27:31;7.33;;;5.20;;
5167;SDS011;2603;48.918;8.980;2023-06-22T11:29:58;12.30;;;5.60;;
5167;SDS011;2603;48.918;8.980;2023-06-22T11:32:26;9.80;;;5.03;;
5167;SDS011;2603;48.918;8.980;2023-06-22T11:34:52;13.87;;;5.50;;
5167;SDS011;2603;48.918;8.980;2023-06-22T11:37:19;14.87;;;5.23;;
5167;SDS011;2603;48.918;8.980;2023-06-22T11:39:45;8.00;;;4.70;;
5167;SDS011;2603;48.918;8.980;2023-06-22T11:42:12;10.90;;;5.57;;
5167;SDS011;2603;48.918;8.980;2023-06-22T11:44:38;11.43;;;5.00;;
5167;SDS011;2603;48.918;8.980;2023-06-22T11:47:05;12.50;;;4.93;;
5167;SDS011;2603;48.918;8.980;2023-06-22T11:49:33;12.20;;;5.37;;
5167;SDS011;2603;48.918;8.980;2023-06-22T11:52:00;14.00;;;5.30;;
5167;SDS011;2603;48.918;8.980;2023-06-22T11:54:26;12.20;;;4.63;;
5167;SDS011;2603;48.918;8.980;2023-06-22T11:56:53;10.57;;;4.50;;
5167;SDS011;2603;48.918;8.980;2023-06-22T11:59:19;8.80;;;4.57;;
5167;SDS011;2603;48.918;8.980;2023-06-22T12:01:46;27.37;;;5.40;;
5167;SDS011;2603;48.918;8.980;2023-06-22T12:04:12;11.07;;;4.53;;
5167;SDS011;2603;48.918;8.980;2023-06-22T12:06:41;10.97;;;6.00;;
5167;SDS011;2603;48.918;8.980;2023-06-22T12:09:08;10.03;;;4.37;;
5167;SDS011;2603;48.918;8.980;2023-06-22T12:11:35;13.70;;;5.43;;
5167;SDS011;2603;48.918;8.980;2023-06-22T12:14:01;12.60;;;5.80;;
5167;SDS011;2603;48.918;8.980;2023-06-22T12:16:28;12.70;;;5.63;;
5167;SDS011;2603;48.918;8.980;2023-06-22T12:18:54;8.90;;;5.00;;
5167;SDS011;2603;48.918;8.980;2023-06-22T12:21:21;14.27;;;5.43;;
5167;SDS011;2603;48.918;8.980;2023-06-22T12:23:49;9.80;;;5.10;;
5167;SDS011;2603;48.918;8.980;2023-06-22T12:26:15;7.40;;;5.27;;
5167;SDS011;2603;48.918;8.980;2023-06-22T12:28:42;9.97;;;5.90;;
5167;SDS011;2603;48.918;8.980;2023-06-22T12:31:08;9.37;;;4.77;;
5167;SDS011;2603;48.918;8.980;2023-06-22T12:33:35;13.30;;;5.57;;
5167;SDS011;2603;48.918;8.980;2023-06-22T12:36:01;12.43;;;5.13;;
5167;SDS011;2603;48.918;8.980;2023-06-22T12:38:30;13.37;;;5.40;;
5167;SDS011;2603;48.918;8.980;2023-06-22T12:40:57;12.63;;;5.53;;
5167;SDS011;2603;48.918;8.980;2023-06-22T12:43:24;15.73;;;4.77;;
5167;SDS011;2603;48.918;8.980;2023-06-22T12:45:50;16.50;;;5.17;;
5167;SDS011;2603;48.918;8.980;2023-06-22T12:48:18;6.63;;;4.23;;
5167;SDS011;2603;48.918;8.980;2023-06-22T12:50:45;10.87;;;4.67;;
5167;SDS011;2603;48.918;8.980;2023-06-22T12:53:12;18.30;;;5.23;;
5167;SDS011;2603;48.918;8.980;2023-06-22T12:55:39;9.00;;;5.03;;
5167;SDS011;2603;48.918;8.980;2023-06-22T12:58:07;10.23;;;4.70;;
5167;SDS011;2603;48.918;8.980;2023-06-22T13:00:33;13.63;;;5.00;;
5167;SDS011;2603;48.918;8.980;2023-06-22T13:03:00;15.13;;;4.67;;
5167;SDS011;2603;48.918;8.980;2023-06-22T13:05:27;14.93;;;5.30;;
5167;SDS011;2603;48.918;8.980;2023-06-22T13:07:53;17.47;;;5.57;;
5167;SDS011;2603;48.918;8.980;2023-06-22T13:10:20;11.03;;;4.60;;
5167;SDS011;2603;48.918;8.980;2023-06-22T13:12:46;10.70;;;5.00;;
5167;SDS011;2603;48.918;8.980;2023-06-22T13:15:14;14.27;;;6.10;;
5167;SDS011;2603;48.918;8.980;2023-06-22T13:17:41;16.33;;;4.97;;
5167;SDS011;2603;48.918;8.980;2023-06-22T13:20:08;12.53;;;5.60;;
5167;SDS011;2603;48.918;8.980;2023-06-22T13:22:35;9.73;;;4.93;;
5167;SDS011;2603;48.918;8.980;2023-06-22T13:25:05;9.97;;;4.73;;
5167;SDS011;2603;48.918;8.980;2023-06-22T13:27:32;9.23;;;5.50;;
5167;SDS011;2603;48.918;8.980;2023-06-22T13:29:59;9.83;;;5.17;;
5167;SDS011;2603;48.918;8.980;2023-06-22T13:32:26;12.30;;;4.73;;
5167;SDS011;2603;48.918;8.980;2023-06-22T13:34:53;14.13;;;4.70;;
5167;SDS011;2603;48.918;8.980;2023-06-22T13:37:20;20.70;;;5.53;;
5167;SDS011;2603;48.918;8.980;2023-06-22T13:39:46;14.00;;;5.10;;
5167;SDS011;2603;48.918;8.980;2023-06-22T13:42:13;13.40;;;4.47;;
5167;SDS011;2603;48.918;8.980;2023-06-22T13:44:39;20.93;;;5.60;;
5167;SDS011;2603;48.918;8.980;2023-06-22T13:47:06;20.70;;;6.40;;
5167;SDS011;2603;48.918;8.980;2023-06-22T13:49:34;16.20;;;6.37;;
5167;SDS011;2603;48.918;8.980;2023-06-22T13:52:00;15.47;;;6.13;;
5167;SDS011;2603;48.918;8.980;2023-06-22T13:54:28;18.60;;;6.20;;
5167;SDS011;2603;48.918;8.980;2023-06-22T13:56:55;27.60;;;5.83;;
5167;SDS011;2603;48.918;8.980;2023-06-22T13:59:21;19.37;;;6.47;;
5167;SDS011;2603;48.918;8.980;2023-06-22T14:01:48;15.97;;;5.37;;
5167;SDS011;2603;48.918;8.980;2023-06-22T14:04:14;11.63;;;5.27;;
5167;SDS011;2603;48.918;8.980;2023-06-22T14:06:42;14.83;;;5.50;;
5167;SDS011;2603;48.918;8.980;2023-06-22T14:09:08;13.43;;;6.00;;
5167;SDS011;2603;48.918;8.980;2023-06-22T14:11:35;11.40;;;5.20;;
5167;SDS011;2603;48.918;8.980;2023-06-22T14:14:02;14.90;;;6.20;;
5167;SDS011;2603;48.918;8.980;2023-06-22T14:16:28;15.40;;;6.93;;
5167;SDS011;2603;48.918;8.980;2023-06-22T14:18:55;14.00;;;6.30;;
5167;SDS011;2603;48.918;8.980;2023-06-22T14:21:21;18.23;;;6.87;;
5167;SDS011;2603;48.918;8.980;2023-06-22T14:23:49;14.43;;;5.47;;
5167;SDS011;2603;48.918;8.980;2023-06-22T14:26:16;32.27;;;6.80;;
5167;SDS011;2603;48.918;8.980;2023-06-22T14:28:43;11.70;;;4.87;;
5167;SDS011;2603;48.918;8.980;2023-06-22T14:31:12;11.93;;;4.50;;
5167;SDS011;2603;48.918;8.980;2023-06-22T14:33:39;23.17;;;5.20;;
5167;SDS011;2603;48.918;8.980;2023-06-22T14:36:06;19.30;;;4.30;;
5167;SDS011;2603;48.918;8.980;2023-06-22T14:38:32;18.17;;;5.20;;
5167;SDS011;2603;48.918;8.980;2023-06-22T14:41:00;13.53;;;3.83;;
5167;SDS011;2603;48.918;8.980;2023-06-22T14:43:27;16.53;;;4.07;;
5167;SDS011;2603;48.918;8.980;2023-06-22T14:45:53;18.90;;;3.80;;
5167;SDS011;2603;48.918;8.980;2023-06-22T14:48:20;17.60;;;4.10;;
5167;SDS011;2603;48.918;8.980;2023-06-22T14:50:46;16.23;;;3.77;;
5167;SDS011;2603;48.918;8.980;2023-06-22T14:53:13;14.33;;;5.00;;
5167;SDS011;2603;48.918;8.980;2023-06-22T14:55:40;14.73;;;3.70;;
5167;SDS011;2603;48.918;8.980;2023-06-22T14:58:09;10.53;;;2.70;;
5167;SDS011;2603;48.918;8.980;2023-06-22T15:00:36;11.10;;;3.10;;
5167;SDS011;2603;48.918;8.980;2023-06-22T15:03:03;9.20;;;2.90;;